sensor_id;sensor_type;location;lat;lon;timestamp;pressure;altitude;pressure_sealevel;temperature;humidity
7264;BME280;3673;52.480;13.348;2023-02-26T00:00:00;100794.16;;;6.24;56.13
7264;BME280;3673;52.480;13.348;2023-02-26T00:02:29;100797.03;;;6.40;55.53
7264;BME280;3673;52.480;13.348;2023-02-26T00:04:55;100802.34;;;6.46;55.98
7264;BME280;3673;52.480;13.348;2023-02-26T00:07:22;100792.88;;;6.50;55.77
7264;BME280;3673;52.480;13.348;2023-02-26T00:09:52;100804.00;;;6.44;55.67
7264;BME280;3673;52.480;13.348;2023-02-26T00:12:19;100811.50;;;6.26;55.16
7264;BME280;3673;52.480;13.348;2023-02-26T00:14:48;100822.44;;;6.08;55.85
7264;BME280;3673;52.480;13.348;2023-02-26T00:17:31;100820.91;;;6.19;55.92
7264;BME280;3673;52.480;13.348;2023-02-26T00:20:00;100824.16;;;6.08;55.87
7264;BME280;3673;52.480;13.348;2023-02-26T00:22:28;100837.50;;;6.28;55.33
7264;BME280;3673;52.480;13.348;2023-02-26T00:24:55;100838.31;;;6.25;55.12
7264;BME280;3673;52.480;13.348;2023-02-26T00:27:21;100839.00;;;6.15;55.08
7264;BME280;3673;52.480;13.348;2023-02-26T00:29:50;100842.63;;;6.25;56.05
7264;BME280;3673;52.480;13.348;2023-02-26T00:32:18;100856.41;;;6.20;55.75
7264;BME280;3673;52.480;13.348;2023-02-26T00:34:46;100853.66;;;6.10;55.50
7264;BME280;3673;52.480;13.348;2023-02-26T00:37:26;100852.25;;;6.29;55.58
7264;BME280;3673;52.480;13.348;2023-02-26T00:40:07;100854.75;;;6.24;55.58
7264;BME280;3673;52.480;13.348;2023-02-26T00:42:40;100855.03;;;6.39;54.93
7264;BME280;3673;52.480;13.348;2023-02-26T00:45:11;100854.84;;;5.85;55.33
7264;BME280;3673;52.480;13.348;2023-02-26T00:47:46;100861.22;;;5.99;55.11
7264;BME280;3673;52.480;13.348;2023-02-26T00:50:17;100857.03;;;6.06;55.73
7264;BME280;3673;52.480;13.348;2023-02-26T00:53:03;100865.38;;;6.36;55.25
7264;BME280;3673;52.480;13.348;2023-02-26T00:55:34;100873.72;;;6.18;55.35
7264;BME280;3673;52.480;13.348;2023-02-26T00:58:01;100866.22;;;6.34;54.88
7264;BME280;3673;52.480;13.348;2023-02-26T01:00:29;100869.97;;;6.51;54.71
7264;BME280;3673;52.480;13.348;2023-02-26T01:02:57;100878.56;;;6.47;54.49
7264;BME280;3673;52.480;13.348;2023-02-26T01:05:25;100882.59;;;6.30;54.42
7264;BME280;3673;52.480;13.348;2023-02-26T01:08:01;100876.88;;;6.49;54.26
7264;BME280;3673;52.480;13.348;2023-02-26T01:10:30;100880.81;;;6.29;54.63
7264;BME280;3673;52.480;13.348;2023-02-26T01:12:57;100885.50;;;6.48;54.49
7264;BME280;3673;52.480;13.348;2023-02-26T01:15:25;100891.84;;;6.63;53.51
7264;BME280;3673;52.480;13.348;2023-02-26T01:18:02;100894.84;;;6.38;53.53
7264;BME280;3673;52.480;13.348;2023-02-26T01:20:37;100894.00;;;6.39;54.00
7264;BME280;3673;52.480;13.348;2023-02-26T01:23:09;100902.38;;;6.71;53.02
7264;BME280;3673;52.480;13.348;2023-02-26T01:25:43;100898.50;;;6.48;53.51
7264;BME280;3673;52.480;13.348;2023-02-26T01:28:12;100895.25;;;6.61;53.22
7264;BME280;3673;52.480;13.348;2023-02-26T01:30:40;100905.91;;;6.74;52.83
7264;BME280;3673;52.480;13.348;2023-02-26T01:33:13;100908.00;;;6.46;53.06
7264;BME280;3673;52.480;13.348;2023-02-26T01:35:45;100904.56;;;6.47;53.22
7264;BME280;3673;52.480;13.348;2023-02-26T01:38:19;100900.03;;;6.37;53.44
7264;BME280;3673;52.480;13.348;2023-02-26T01:41:16;100903.69;;;6.48;53.55
7264;BME280;3673;52.480;13.348;2023-02-26T01:43:58;100908.16;;;6.53;53.46
7264;BME280;3673;52.480;13.348;2023-02-26T01:46:33;100915.34;;;6.69;53.15
7264;BME280;3673;52.480;13.348;2023-02-26T01:49:05;100904.06;;;6.69;52.37
7264;BME280;3673;52.480;13.348;2023-02-26T01:51:46;100916.03;;;6.59;52.49
7264;BME280;3673;52.480;13.348;2023-02-26T01:54:16;100919.91;;;6.84;52.26
7264;BME280;3673;52.480;13.348;2023-02-26T01:56:44;100913.88;;;6.84;52.56
7264;BME280;3673;52.480;13.348;2023-02-26T01:59:15;100925.59;;;6.62;52.96
7264;BME280;3673;52.480;13.348;2023-02-26T02:01:51;100928.53;;;6.32;52.55
7264;BME280;3673;52.480;13.348;2023-02-26T02:04:20;100929.03;;;6.59;52.47
7264;BME280;3673;52.480;13.348;2023-02-26T02:06:48;100935.31;;;6.72;52.35
7264;BME280;3673;52.480;13.348;2023-02-26T02:09:15;100937.19;;;6.79;52.22
7264;BME280;3673;52.480;13.348;2023-02-26T02:12:07;100945.88;;;6.80;52.06
7264;BME280;3673;52.480;13.348;2023-02-26T02:14:45;100934.69;;;6.84;51.75
7264;BME280;3673;52.480;13.348;2023-02-26T02:17:23;100937.63;;;6.55;52.38
7264;BME280;3673;52.480;13.348;2023-02-26T02:20:26;100946.50;;;6.68;52.80
7264;BME280;3673;52.480;13.348;2023-02-26T02:23:10;100959.69;;;6.79;52.15
7264;BME280;3673;52.480;13.348;2023-02-26T02:26:12;100958.09;;;6.84;51.74
7264;BME280;3673;52.480;13.348;2023-02-26T02:29:08;100965.44;;;6.61;52.42
7264;BME280;3673;52.480;13.348;2023-02-26T02:31:48;100969.22;;;6.78;51.92
7264;BME280;3673;52.480;13.348;2023-02-26T02:34:21;100970.16;;;6.82;51.57
7264;BME280;3673;52.480;13.348;2023-02-26T02:36:55;100972.59;;;6.72;51.79
7264;BME280;3673;52.480;13.348;2023-02-26T02:39:27;100970.63;;;6.61;52.26
7264;BME280;3673;52.480;13.348;2023-02-26T02:42:03;100976.19;;;6.81;51.58
7264;BME280;3673;52.480;13.348;2023-02-26T02:44:35;100983.41;;;6.95;51.57
7264;BME280;3673;52.480;13.348;2023-02-26T02:47:06;100988.16;;;6.71;51.63
7264;BME280;3673;52.480;13.348;2023-02-26T02:49:38;100983.06;;;6.76;52.10
7264;BME280;3673;52.480;13.348;2023-02-26T02:52:13;100992.63;;;6.78;51.19
7264;BME280;3673;52.480;13.348;2023-02-26T02:54:48;101002.53;;;6.52;51.66
7264;BME280;3673;52.480;13.348;2023-02-26T02:57:20;100989.75;;;6.63;51.08
7264;BME280;3673;52.480;13.348;2023-02-26T02:59:51;100989.25;;;6.82;51.12
7264;BME280;3673;52.480;13.348;2023-02-26T03:02:29;100996.31;;;6.91;51.08
7264;BME280;3673;52.480;13.348;2023-02-26T03:04:58;100993.63;;;6.85;50.88
7264;BME280;3673;52.480;13.348;2023-02-26T03:07:25;101004.84;;;6.82;50.39
7264;BME280;3673;52.480;13.348;2023-02-26T03:09:52;100999.19;;;7.06;50.44
7264;BME280;3673;52.480;13.348;2023-02-26T03:12:19;101008.53;;;6.95;50.71
7264;BME280;3673;52.480;13.348;2023-02-26T03:14:46;101013.88;;;7.04;50.74
7264;BME280;3673;52.480;13.348;2023-02-26T03:17:21;101014.59;;;6.94;50.19
7264;BME280;3673;52.480;13.348;2023-02-26T03:20:12;101020.91;;;7.08;50.50
7264;BME280;3673;52.480;13.348;2023-02-26T03:22:49;101022.81;;;6.70;50.58
7264;BME280;3673;52.480;13.348;2023-02-26T03:25:25;101028.84;;;6.69;51.20
7264;BME280;3673;52.480;13.348;2023-02-26T03:28:00;101037.03;;;6.89;50.81
7264;BME280;3673;52.480;13.348;2023-02-26T03:30:36;101025.16;;;6.58;50.98
7264;BME280;3673;52.480;13.348;2023-02-26T03:33:11;101038.91;;;6.96;51.00
7264;BME280;3673;52.480;13.348;2023-02-26T03:35:47;101039.31;;;7.18;50.57
7264;BME280;3673;52.480;13.348;2023-02-26T03:38:30;101042.28;;;6.92;50.61
7264;BME280;3673;52.480;13.348;2023-02-26T03:41:03;101047.81;;;7.08;50.34
7264;BME280;3673;52.480;13.348;2023-02-26T03:43:36;101055.66;;;7.11;50.45
7264;BME280;3673;52.480;13.348;2023-02-26T03:46:09;101061.47;;;6.97;50.75
7264;BME280;3673;52.480;13.348;2023-02-26T03:48:37;101065.75;;;6.95;50.25
7264;BME280;3673;52.480;13.348;2023-02-26T03:51:10;101069.38;;;7.03;50.19
7264;BME280;3673;52.480;13.348;2023-02-26T03:53:42;101074.41;;;6.94;50.79
7264;BME280;3673;52.480;13.348;2023-02-26T03:56:17;101077.09;;;6.98;50.73
7264;BME280;3673;52.480;13.348;2023-02-26T03:58:45;101082.84;;;6.82;50.79
7264;BME280;3673;52.480;13.348;2023-02-26T04:01:15;101090.34;;;7.10;50.62
7264;BME280;3673;52.480;13.348;2023-02-26T04:03:48;101098.06;;;7.06;50.25
7264;BME280;3673;52.480;13.348;2023-02-26T04:06:17;101100.47;;;6.97;50.65
7264;BME280;3673;52.480;13.348;2023-02-26T04:08:45;101100.22;;;6.85;50.49
7264;BME280;3673;52.480;13.348;2023-02-26T04:11:15;101098.09;;;6.65;50.99
7264;BME280;3673;52.480;13.348;2023-02-26T04:13:44;101099.41;;;6.87;50.61
7264;BME280;3673;52.480;13.348;2023-02-26T04:16:11;101108.56;;;6.68;51.09
7264;BME280;3673;52.480;13.348;2023-02-26T04:18:39;101117.81;;;6.96;50.51
7264;BME280;3673;52.480;13.348;2023-02-26T04:21:10;101116.84;;;6.49;51.27
7264;BME280;3673;52.480;13.348;2023-02-26T04:23:38;101121.56;;;7.10;49.89
7264;BME280;3673;52.480;13.348;2023-02-26T04:26:06;101121.63;;;6.71;51.04
7264;BME280;3673;52.480;13.348;2023-02-26T04:28:33;101120.72;;;6.69;50.82
7264;BME280;3673;52.480;13.348;2023-02-26T04:31:02;101124.56;;;6.88;50.60
7264;BME280;3673;52.480;13.348;2023-02-26T04:33:30;101123.50;;;6.77;51.42
7264;BME280;3673;52.480;13.348;2023-02-26T04:35:57;101134.63;;;6.71;51.12
7264;BME280;3673;52.480;13.348;2023-02-26T04:38:24;101134.19;;;6.52;51.46
7264;BME280;3673;52.480;13.348;2023-02-26T04:40:52;101144.19;;;6.74;51.02
7264;BME280;3673;52.480;13.348;2023-02-26T04:43:19;101148.38;;;6.66;50.87
7264;BME280;3673;52.480;13.348;2023-02-26T04:45:47;101140.88;;;6.80;50.87
7264;BME280;3673;52.480;13.348;2023-02-26T04:48:14;101147.63;;;6.71;50.58
7264;BME280;3673;52.480;13.348;2023-02-26T04:50:41;101153.16;;;6.87;50.52
7264;BME280;3673;52.480;13.348;2023-02-26T04:53:08;101147.25;;;6.94;49.81
7264;BME280;3673;52.480;13.348;2023-02-26T04:55:35;101158.50;;;6.94;49.85
7264;BME280;3673;52.480;13.348;2023-02-26T04:58:03;101165.19;;;6.82;49.82
7264;BME280;3673;52.480;13.348;2023-02-26T05:00:30;101164.16;;;6.73;49.90
7264;BME280;3673;52.480;13.348;2023-02-26T05:02:57;101168.59;;;6.81;50.23
7264;BME280;3673;52.480;13.348;2023-02-26T05:05:23;101167.19;;;6.95;49.86
7264;BME280;3673;52.480;13.348;2023-02-26T05:07:51;101166.75;;;6.73;50.50
7264;BME280;3673;52.480;13.348;2023-02-26T05:10:21;101172.13;;;6.83;49.83
7264;BME280;3673;52.480;13.348;2023-02-26T05:12:48;101180.59;;;6.72;49.95
7264;BME280;3673;52.480;13.348;2023-02-26T05:15:16;101191.00;;;6.74;49.66
7264;BME280;3673;52.480;13.348;2023-02-26T05:17:43;101183.97;;;6.68;49.69
7264;BME280;3673;52.480;13.348;2023-02-26T05:20:11;101191.25;;;6.85;49.41
7264;BME280;3673;52.480;13.348;2023-02-26T05:22:40;101192.22;;;6.90;49.24
7264;BME280;3673;52.480;13.348;2023-02-26T05:25:08;101197.63;;;6.99;49.27
7264;BME280;3673;52.480;13.348;2023-02-26T05:27:38;101198.41;;;6.95;49.25
7264;BME280;3673;52.480;13.348;2023-02-26T05:30:07;101205.00;;;6.81;48.67
7264;BME280;3673;52.480;13.348;2023-02-26T05:32:36;101213.88;;;6.89;49.00
7264;BME280;3673;52.480;13.348;2023-02-26T05:35:03;101211.34;;;6.92;48.68
7264;BME280;3673;52.480;13.348;2023-02-26T05:37:30;101220.56;;;6.78;49.16
7264;BME280;3673;52.480;13.348;2023-02-26T05:39:56;101216.53;;;6.90;48.97
7264;BME280;3673;52.480;13.348;2023-02-26T05:42:23;101230.19;;;6.82;49.14
7264;BME280;3673;52.480;13.348;2023-02-26T05:44:50;101235.38;;;6.82;48.79
7264;BME280;3673;52.480;13.348;2023-02-26T05:47:17;101234.56;;;6.84;48.84
7264;BME280;3673;52.480;13.348;2023-02-26T05:49:45;101237.41;;;6.95;48.64
7264;BME280;3673;52.480;13.348;2023-02-26T05:52:12;101238.34;;;6.98;48.08
7264;BME280;3673;52.480;13.348;2023-02-26T05:54:38;101249.38;;;6.87;48.80
7264;BME280;3673;52.480;13.348;2023-02-26T05:57:05;101248.56;;;6.89;48.62
7264;BME280;3673;52.480;13.348;2023-02-26T05:59:32;101244.94;;;6.83;48.80
7264;BME280;3673;52.480;13.348;2023-02-26T06:01:58;101249.91;;;6.72;49.21
7264;BME280;3673;52.480;13.348;2023-02-26T06:04:25;101258.16;;;6.92;48.29
7264;BME280;3673;52.480;13.348;2023-02-26T06:06:53;101260.78;;;6.93;48.10
7264;BME280;3673;52.480;13.348;2023-02-26T06:09:20;101262.34;;;6.85;48.41
7264;BME280;3673;52.480;13.348;2023-02-26T06:11:47;101269.94;;;6.76;48.38
7264;BME280;3673;52.480;13.348;2023-02-26T06:14:13;101263.13;;;6.45;48.80
7264;BME280;3673;52.480;13.348;2023-02-26T06:16:40;101267.06;;;7.03;48.34
7264;BME280;3673;52.480;13.348;2023-02-26T06:19:07;101271.34;;;7.01;48.31
7264;BME280;3673;52.480;13.348;2023-02-26T06:21:33;101278.19;;;6.97;47.83
7264;BME280;3673;52.480;13.348;2023-02-26T06:24:02;101287.78;;;6.98;48.35
7264;BME280;3673;52.480;13.348;2023-02-26T06:26:28;101284.53;;;6.69;48.45
7264;BME280;3673;52.480;13.348;2023-02-26T06:28:55;101292.13;;;6.99;48.07
7264;BME280;3673;52.480;13.348;2023-02-26T06:31:22;101298.41;;;6.70;48.31
7264;BME280;3673;52.480;13.348;2023-02-26T06:33:49;101301.06;;;6.73;48.51
7264;BME280;3673;52.480;13.348;2023-02-26T06:36:15;101307.44;;;6.86;48.33
7264;BME280;3673;52.480;13.348;2023-02-26T06:38:42;101313.00;;;7.02;48.13
7264;BME280;3673;52.480;13.348;2023-02-26T06:41:11;101318.91;;;6.95;47.70
7264;BME280;3673;52.480;13.348;2023-02-26T06:43:38;101322.66;;;7.06;47.47
7264;BME280;3673;52.480;13.348;2023-02-26T06:46:05;101329.75;;;7.13;47.36
7264;BME280;3673;52.480;13.348;2023-02-26T06:48:32;101331.59;;;6.82;48.22
7264;BME280;3673;52.480;13.348;2023-02-26T06:50:58;101325.41;;;7.14;47.57
7264;BME280;3673;52.480;13.348;2023-02-26T06:53:25;101332.28;;;7.10;47.74
7264;BME280;3673;52.480;13.348;2023-02-26T06:55:52;101339.72;;;6.95;47.77
7264;BME280;3673;52.480;13.348;2023-02-26T06:58:22;101345.50;;;7.19;47.58
7264;BME280;3673;52.480;13.348;2023-02-26T07:00:49;101344.44;;;7.11;47.34
7264;BME280;3673;52.480;13.348;2023-02-26T07:03:17;101345.19;;;7.06;47.78
7264;BME280;3673;52.480;13.348;2023-02-26T07:05:44;101359.31;;;7.17;47.54
7264;BME280;3673;52.480;13.348;2023-02-26T07:08:12;101357.09;;;6.96;47.50
7264;BME280;3673;52.480;13.348;2023-02-26T07:10:40;101358.44;;;6.81;47.87
7264;BME280;3673;52.480;13.348;2023-02-26T07:13:07;101362.38;;;6.63;47.76
7264;BME280;3673;52.480;13.348;2023-02-26T07:15:36;101367.59;;;7.01;47.38
7264;BME280;3673;52.480;13.348;2023-02-26T07:18:03;101374.63;;;7.05;47.15
7264;BME280;3673;52.480;13.348;2023-02-26T07:20:30;101376.66;;;7.18;46.89
7264;BME280;3673;52.480;13.348;2023-02-26T07:22:56;101387.44;;;6.96;47.03
7264;BME280;3673;52.480;13.348;2023-02-26T07:25:23;101395.06;;;7.25;46.78
7264;BME280;3673;52.480;13.348;2023-02-26T07:27:50;101386.81;;;7.07;46.96
7264;BME280;3673;52.480;13.348;2023-02-26T07:30:17;101405.16;;;6.78;47.11
7264;BME280;3673;52.480;13.348;2023-02-26T07:32:45;101404.28;;;7.11;47.03
7264;BME280;3673;52.480;13.348;2023-02-26T07:35:12;101397.63;;;7.24;46.83
7264;BME280;3673;52.480;13.348;2023-02-26T07:37:39;101410.56;;;6.84;47.18
7264;BME280;3673;52.480;13.348;2023-02-26T07:40:07;101415.69;;;7.16;47.06
7264;BME280;3673;52.480;13.348;2023-02-26T07:42:34;101421.56;;;6.75;47.19
7264;BME280;3673;52.480;13.348;2023-02-26T07:45:01;101424.88;;;7.02;47.86
7264;BME280;3673;52.480;13.348;2023-02-26T07:47:28;101433.16;;;7.22;47.11
7264;BME280;3673;52.480;13.348;2023-02-26T07:49:57;101421.94;;;6.89;46.80
7264;BME280;3673;52.480;13.348;2023-02-26T07:52:23;101435.13;;;7.32;46.54
7264;BME280;3673;52.480;13.348;2023-02-26T07:54:51;101430.47;;;7.19;47.14
7264;BME280;3673;52.480;13.348;2023-02-26T07:57:18;101442.06;;;6.96;47.67
7264;BME280;3673;52.480;13.348;2023-02-26T07:59:45;101439.66;;;7.05;46.96
7264;BME280;3673;52.480;13.348;2023-02-26T08:02:13;101442.00;;;6.94;47.11
7264;BME280;3673;52.480;13.348;2023-02-26T08:04:41;101444.94;;;7.08;46.52
7264;BME280;3673;52.480;13.348;2023-02-26T08:07:09;101451.41;;;7.23;46.50
7264;BME280;3673;52.480;13.348;2023-02-26T08:09:36;101450.06;;;7.41;46.20
7264;BME280;3673;52.480;13.348;2023-02-26T08:12:03;101451.38;;;7.59;46.43
7264;BME280;3673;52.480;13.348;2023-02-26T08:14:29;101455.13;;;7.35;46.57
7264;BME280;3673;52.480;13.348;2023-02-26T08:16:56;101464.66;;;7.70;45.82
7264;BME280;3673;52.480;13.348;2023-02-26T08:19:23;101462.38;;;7.48;45.25
7264;BME280;3673;52.480;13.348;2023-02-26T08:21:50;101473.69;;;7.48;45.69
7264;BME280;3673;52.480;13.348;2023-02-26T08:24:21;101470.03;;;7.40;46.51
7264;BME280;3673;52.480;13.348;2023-02-26T08:26:47;101467.38;;;7.39;46.47
7264;BME280;3673;52.480;13.348;2023-02-26T08:29:14;101479.91;;;7.19;46.57
7264;BME280;3673;52.480;13.348;2023-02-26T08:31:41;101480.94;;;7.25;45.42
7264;BME280;3673;52.480;13.348;2023-02-26T08:34:08;101482.31;;;7.47;45.44
7264;BME280;3673;52.480;13.348;2023-02-26T08:36:34;101492.50;;;7.74;45.54
7264;BME280;3673;52.480;13.348;2023-02-26T08:39:01;101487.84;;;7.61;45.36
7264;BME280;3673;52.480;13.348;2023-02-26T08:41:29;101496.97;;;7.80;45.14
7264;BME280;3673;52.480;13.348;2023-02-26T08:43:57;101496.16;;;7.82;45.15
7264;BME280;3673;52.480;13.348;2023-02-26T08:46:25;101496.28;;;7.49;44.89
7264;BME280;3673;52.480;13.348;2023-02-26T08:48:52;101503.00;;;7.41;45.31
7264;BME280;3673;52.480;13.348;2023-02-26T08:51:19;101508.94;;;7.71;45.25
7264;BME280;3673;52.480;13.348;2023-02-26T08:53:45;101511.31;;;8.00;44.25
7264;BME280;3673;52.480;13.348;2023-02-26T08:56:14;101505.06;;;7.92;44.75
7264;BME280;3673;52.480;13.348;2023-02-26T08:58:43;101519.47;;;8.15;44.03
7264;BME280;3673;52.480;13.348;2023-02-26T09:01:10;101514.19;;;7.73;44.33
7264;BME280;3673;52.480;13.348;2023-02-26T09:03:37;101519.28;;;7.67;44.41
7264;BME280;3673;52.480;13.348;2023-02-26T09:06:04;101523.28;;;7.92;44.55
7264;BME280;3673;52.480;13.348;2023-02-26T09:08:31;101533.06;;;8.00;44.13
7264;BME280;3673;52.480;13.348;2023-02-26T09:10:59;101523.66;;;8.08;43.75
7264;BME280;3673;52.480;13.348;2023-02-26T09:13:26;101529.09;;;8.19;43.84
7264;BME280;3673;52.480;13.348;2023-02-26T09:15:55;101530.09;;;7.85;43.86
7264;BME280;3673;52.480;13.348;2023-02-26T09:18:21;101524.06;;;7.88;43.94
7264;BME280;3673;52.480;13.348;2023-02-26T09:20:48;101537.88;;;8.24;43.14
7264;BME280;3673;52.480;13.348;2023-02-26T09:23:15;101539.69;;;7.88;43.39
7264;BME280;3673;52.480;13.348;2023-02-26T09:25:42;101544.06;;;7.87;42.69
7264;BME280;3673;52.480;13.348;2023-02-26T09:28:09;101548.00;;;8.09;42.28
7264;BME280;3673;52.480;13.348;2023-02-26T09:30:35;101551.69;;;8.18;42.62
7264;BME280;3673;52.480;13.348;2023-02-26T09:33:04;101558.63;;;8.18;42.69
7264;BME280;3673;52.480;13.348;2023-02-26T09:35:31;101566.47;;;8.19;42.32
7264;BME280;3673;52.480;13.348;2023-02-26T09:37:57;101569.72;;;8.09;43.89
7264;BME280;3673;52.480;13.348;2023-02-26T09:40:35;101577.38;;;8.02;42.56
7264;BME280;3673;52.480;13.348;2023-02-26T09:43:47;101564.78;;;7.84;43.02
7264;BME280;3673;52.480;13.348;2023-02-26T09:46:29;101574.50;;;7.90;42.67
7264;BME280;3673;52.480;13.348;2023-02-26T09:49:06;101583.59;;;8.07;42.38
7264;BME280;3673;52.480;13.348;2023-02-26T09:51:40;101582.66;;;7.69;42.86
7264;BME280;3673;52.480;13.348;2023-02-26T09:54:15;101584.63;;;8.15;42.36
7264;BME280;3673;52.480;13.348;2023-02-26T09:56:44;101591.47;;;8.10;42.52
7264;BME280;3673;52.480;13.348;2023-02-26T09:59:12;101592.75;;;7.91;42.48
7264;BME280;3673;52.480;13.348;2023-02-26T10:01:47;101592.56;;;8.21;42.50
7264;BME280;3673;52.480;13.348;2023-02-26T10:04:26;101600.19;;;8.51;41.86
7264;BME280;3673;52.480;13.348;2023-02-26T10:07:14;101612.34;;;8.49;41.40
7264;BME280;3673;52.480;13.348;2023-02-26T10:09:56;101597.81;;;8.61;40.93
7264;BME280;3673;52.480;13.348;2023-02-26T10:12:28;101610.06;;;8.64;40.91
7264;BME280;3673;52.480;13.348;2023-02-26T10:15:00;101614.53;;;9.14;40.19
7264;BME280;3673;52.480;13.348;2023-02-26T10:17:33;101615.13;;;9.00;40.01
7264;BME280;3673;52.480;13.348;2023-02-26T10:20:07;101615.56;;;9.22;40.09
7264;BME280;3673;52.480;13.348;2023-02-26T10:22:41;101620.84;;;9.25;39.55
7264;BME280;3673;52.480;13.348;2023-02-26T10:25:15;101623.47;;;9.25;39.16
7264;BME280;3673;52.480;13.348;2023-02-26T10:27:52;101626.25;;;8.90;38.45
7264;BME280;3673;52.480;13.348;2023-02-26T10:30:29;101632.00;;;9.17;37.56
7264;BME280;3673;52.480;13.348;2023-02-26T10:33:11;101634.75;;;8.81;38.27
7264;BME280;3673;52.480;13.348;2023-02-26T10:35:46;101648.28;;;9.05;37.64
7264;BME280;3673;52.480;13.348;2023-02-26T10:38:21;101650.56;;;8.89;37.95
7264;BME280;3673;52.480;13.348;2023-02-26T10:40:54;101642.16;;;8.60;38.61
7264;BME280;3673;52.480;13.348;2023-02-26T10:43:28;101646.22;;;8.47;38.09
7264;BME280;3673;52.480;13.348;2023-02-26T10:46:12;101647.31;;;8.58;37.69
7264;BME280;3673;52.480;13.348;2023-02-26T10:48:59;101652.34;;;8.91;37.86
7264;BME280;3673;52.480;13.348;2023-02-26T10:51:35;101643.84;;;9.01;37.83
7264;BME280;3673;52.480;13.348;2023-02-26T10:54:11;101656.50;;;8.82;37.65
7264;BME280;3673;52.480;13.348;2023-02-26T10:56:40;101653.25;;;8.92;37.54
7264;BME280;3673;52.480;13.348;2023-02-26T10:59:06;101660.34;;;8.97;36.90
7264;BME280;3673;52.480;13.348;2023-02-26T11:01:33;101660.16;;;8.90;36.82
7264;BME280;3673;52.480;13.348;2023-02-26T11:04:05;101670.47;;;8.43;37.96
7264;BME280;3673;52.480;13.348;2023-02-26T11:06:38;101656.63;;;9.29;36.58
7264;BME280;3673;52.480;13.348;2023-02-26T11:09:22;101656.53;;;9.74;35.54
7264;BME280;3673;52.480;13.348;2023-02-26T11:11:53;101658.34;;;9.77;35.31
7264;BME280;3673;52.480;13.348;2023-02-26T11:14:21;101671.91;;;9.56;35.39
7264;BME280;3673;52.480;13.348;2023-02-26T11:16:51;101659.34;;;9.36;35.02
7264;BME280;3673;52.480;13.348;2023-02-26T11:19:26;101665.81;;;9.56;35.02
7264;BME280;3673;52.480;13.348;2023-02-26T11:21:55;101666.66;;;9.55;35.21
7264;BME280;3673;52.480;13.348;2023-02-26T11:24:29;101671.28;;;9.69;34.86
7264;BME280;3673;52.480;13.348;2023-02-26T11:26:58;101675.28;;;10.00;34.10
7264;BME280;3673;52.480;13.348;2023-02-26T11:29:35;101679.75;;;10.63;32.77
7264;BME280;3673;52.480;13.348;2023-02-26T11:32:04;101677.66;;;10.39;32.35
7264;BME280;3673;52.480;13.348;2023-02-26T11:34:31;101685.78;;;11.25;32.36
7264;BME280;3673;52.480;13.348;2023-02-26T11:37:00;101685.13;;;10.70;32.61
7264;BME280;3673;52.480;13.348;2023-02-26T11:39:32;101691.97;;;10.62;32.49
7264;BME280;3673;52.480;13.348;2023-02-26T11:42:01;101690.53;;;10.85;32.45
7264;BME280;3673;52.480;13.348;2023-02-26T11:44:35;101696.09;;;10.48;33.86
7264;BME280;3673;52.480;13.348;2023-02-26T11:47:06;101694.56;;;10.62;33.76
7264;BME280;3673;52.480;13.348;2023-02-26T11:49:33;101693.22;;;10.30;34.45
7264;BME280;3673;52.480;13.348;2023-02-26T11:52:14;101687.75;;;10.15;34.35
7264;BME280;3673;52.480;13.348;2023-02-26T11:54:44;101694.84;;;10.20;34.18
7264;BME280;3673;52.480;13.348;2023-02-26T11:57:17;101697.72;;;9.88;35.09
7264;BME280;3673;52.480;13.348;2023-02-26T11:59:48;101694.78;;;9.69;34.24
7264;BME280;3673;52.480;13.348;2023-02-26T12:02:19;101703.94;;;9.48;33.65
7264;BME280;3673;52.480;13.348;2023-02-26T12:04:50;101697.41;;;9.69;33.23
7264;BME280;3673;52.480;13.348;2023-02-26T12:07:20;101685.44;;;10.96;31.70
7264;BME280;3673;52.480;13.348;2023-02-26T12:09:47;101690.94;;;11.17;31.38
7264;BME280;3673;52.480;13.348;2023-02-26T12:12:44;101704.63;;;10.94;31.44
7264;BME280;3673;52.480;13.348;2023-02-26T12:15:27;101696.59;;;10.23;33.08
7264;BME280;3673;52.480;13.348;2023-02-26T12:18:19;101698.91;;;9.57;33.16
7264;BME280;3673;52.480;13.348;2023-02-26T12:21:01;101706.81;;;9.61;33.12
7264;BME280;3673;52.480;13.348;2023-02-26T12:24:09;101715.00;;;9.33;33.42
7264;BME280;3673;52.480;13.348;2023-02-26T12:26:49;101709.84;;;10.95;31.82
7264;BME280;3673;52.480;13.348;2023-02-26T12:29:46;101695.50;;;12.22;29.46
7264;BME280;3673;52.480;13.348;2023-02-26T12:32:32;101704.66;;;12.91;27.82
7264;BME280;3673;52.480;13.348;2023-02-26T12:35:24;101696.03;;;13.09;26.85
7264;BME280;3673;52.480;13.348;2023-02-26T12:38:07;101692.72;;;13.67;26.86
7264;BME280;3673;52.480;13.348;2023-02-26T12:40:55;101705.84;;;13.78;25.91
7264;BME280;3673;52.480;13.348;2023-02-26T12:43:33;101703.00;;;13.01;27.48
7264;BME280;3673;52.480;13.348;2023-02-26T12:46:13;101718.91;;;11.21;30.43
7264;BME280;3673;52.480;13.348;2023-02-26T12:49:16;101722.16;;;9.90;32.75
7264;BME280;3673;52.480;13.348;2023-02-26T12:52:11;101723.97;;;9.94;33.05
7264;BME280;3673;52.480;13.348;2023-02-26T12:55:00;101729.00;;;9.83;33.33
7264;BME280;3673;52.480;13.348;2023-02-26T12:57:53;101721.31;;;9.91;33.55
7264;BME280;3673;52.480;13.348;2023-02-26T13:00:42;101730.28;;;10.06;33.26
7264;BME280;3673;52.480;13.348;2023-02-26T13:03:39;101726.25;;;10.82;31.60
7264;BME280;3673;52.480;13.348;2023-02-26T13:06:36;101718.63;;;12.79;28.11
7264;BME280;3673;52.480;13.348;2023-02-26T13:09:15;101719.88;;;13.68;26.41
7264;BME280;3673;52.480;13.348;2023-02-26T13:12:01;101725.16;;;13.74;25.96
7264;BME280;3673;52.480;13.348;2023-02-26T13:14:47;101731.38;;;14.33;25.22
7264;BME280;3673;52.480;13.348;2023-02-26T13:17:25;101736.56;;;13.79;26.06
7264;BME280;3673;52.480;13.348;2023-02-26T13:19:57;101733.78;;;11.99;28.21
7264;BME280;3673;52.480;13.348;2023-02-26T13:22:29;101741.81;;;11.37;30.43
7264;BME280;3673;52.480;13.348;2023-02-26T13:25:01;101734.34;;;10.99;31.44
7264;BME280;3673;52.480;13.348;2023-02-26T13:27:34;101741.88;;;10.77;31.49
7264;BME280;3673;52.480;13.348;2023-02-26T13:30:19;101753.50;;;10.38;32.13
7264;BME280;3673;52.480;13.348;2023-02-26T13:32:50;101748.97;;;10.26;31.76
7264;BME280;3673;52.480;13.348;2023-02-26T13:35:24;101747.56;;;9.98;31.46